createdAt,value
2023-09-07T00:01:09.233Z,18.10
2023-09-07T00:03:40.373Z,18.11
2023-09-07T00:06:07.387Z,18.11
2023-09-07T00:08:35.166Z,18.06
2023-09-07T00:11:05.431Z,18.04
2023-09-07T00:13:33.452Z,18.04
2023-09-07T00:16:03.874Z,18.11
2023-09-07T00:18:32.021Z,18.10
2023-09-07T00:21:00.760Z,18.11
2023-09-07T00:23:28.677Z,18.03
2023-09-07T00:25:56.282Z,18.04
2023-09-07T00:28:24.501Z,17.93
2023-09-07T00:30:52.200Z,17.83
2023-09-07T00:33:21.252Z,17.88
2023-09-07T00:35:48.901Z,17.79
2023-09-07T00:38:16.569Z,17.71
2023-09-07T00:40:45.328Z,17.63
2023-09-07T00:43:13.155Z,17.61
2023-09-07T00:45:41.226Z,17.61
2023-09-07T00:48:09.660Z,17.62
2023-09-07T00:50:38.964Z,17.64
2023-09-07T00:53:08.204Z,17.61
2023-09-07T00:55:36.763Z,17.57
2023-09-07T00:58:05.766Z,17.61
2023-09-07T01:00:34.186Z,17.59
2023-09-07T01:03:02.306Z,17.53
2023-09-07T01:05:36.955Z,17.48
2023-09-07T01:08:14.107Z,17.42
2023-09-07T01:10:41.780Z,17.38
2023-09-07T01:13:09.525Z,17.44
2023-09-07T01:15:37.337Z,17.39
2023-09-07T01:18:21.758Z,17.33
2023-09-07T01:20:52.642Z,17.28
2023-09-07T01:23:22.567Z,17.23
2023-09-07T01:25:51.932Z,17.17
2023-09-07T01:28:20.617Z,17.13
2023-09-07T01:30:48.759Z,17.10
2023-09-07T01:33:16.354Z,17.10
2023-09-07T01:35:44.026Z,17.03
2023-09-07T01:38:11.760Z,17.02
2023-09-07T01:40:40.777Z,16.96
2023-09-07T01:43:08.725Z,16.97
2023-09-07T01:45:36.403Z,16.91
2023-09-07T01:48:04.938Z,16.87
2023-09-07T01:50:32.529Z,16.82
2023-09-07T01:53:00.159Z,16.76
2023-09-07T01:55:29.563Z,16.74
2023-09-07T01:57:58.672Z,16.71
2023-09-07T02:00:26.308Z,16.66
2023-09-07T02:02:54.024Z,16.63
2023-09-07T02:05:22.371Z,16.60
2023-09-07T02:07:50.918Z,16.57
2023-09-07T02:10:19.312Z,16.57
2023-09-07T02:12:47.621Z,16.56
2023-09-07T02:15:16.625Z,16.56
2023-09-07T02:17:46.123Z,16.54
2023-09-07T02:20:14.385Z,16.52
2023-09-07T02:22:43.778Z,16.57
2023-09-07T02:25:11.505Z,16.58
2023-09-07T02:27:39.094Z,16.63
2023-09-07T02:30:08.450Z,16.64
2023-09-07T02:32:37.523Z,16.58
2023-09-07T02:35:05.710Z,16.56
2023-09-07T02:37:33.278Z,16.54
2023-09-07T02:40:00.900Z,16.51
2023-09-07T02:42:28.508Z,16.49
2023-09-07T02:44:56.188Z,16.44
2023-09-07T02:47:23.961Z,16.44
2023-09-07T02:49:52.883Z,16.49
2023-09-07T02:52:20.475Z,16.49
2023-09-07T02:54:48.456Z,16.49
2023-09-07T02:57:16.125Z,16.52
2023-09-07T02:59:45.160Z,16.45
2023-09-07T03:02:13.438Z,16.39
2023-09-07T03:04:41.191Z,16.34
2023-09-07T03:07:10.539Z,16.30
2023-09-07T03:09:38.975Z,16.31
2023-09-07T03:12:07.768Z,16.28
2023-09-07T03:14:35.345Z,16.27
2023-09-07T03:17:04.688Z,16.29
2023-09-07T03:19:32.777Z,16.32
2023-09-07T03:22:00.613Z,16.38
2023-09-07T03:24:29.840Z,16.46
2023-09-07T03:26:57.507Z,16.44
2023-09-07T03:29:25.370Z,16.40
2023-09-07T03:31:53.160Z,16.47
2023-09-07T03:34:22.013Z,16.40
2023-09-07T03:36:49.904Z,16.35
2023-09-07T03:39:20.028Z,16.32
2023-09-07T03:41:49.310Z,16.23
2023-09-07T03:44:16.966Z,16.18
2023-09-07T03:46:44.687Z,16.13
2023-09-07T03:49:12.327Z,16.12
2023-09-07T03:51:40.013Z,16.27
2023-09-07T03:54:07.717Z,16.20
2023-09-07T03:56:35.394Z,16.15
2023-09-07T03:59:04.436Z,16.13
2023-09-07T04:01:32.183Z,16.08
2023-09-07T04:04:00.051Z,16.03
2023-09-07T04:06:27.717Z,15.99
2023-09-07T04:08:55.381Z,15.98
2023-09-07T04:11:23.035Z,16.01
2023-09-07T04:13:50.739Z,16.00
2023-09-07T04:16:19.652Z,16.04
2023-09-07T04:18:47.369Z,16.06
2023-09-07T04:21:15.025Z,16.13
2023-09-07T04:23:42.660Z,16.25
2023-09-07T04:26:11.909Z,16.27
2023-09-07T04:28:40.388Z,16.23
2023-09-07T04:31:08.794Z,16.17
2023-09-07T04:33:37.981Z,16.19
2023-09-07T04:36:10.912Z,16.22
2023-09-07T04:38:38.666Z,16.19
2023-09-07T04:41:10.050Z,16.23
2023-09-07T04:43:38.760Z,16.27
2023-09-07T04:46:06.419Z,16.18
2023-09-07T04:48:35.149Z,16.22
2023-09-07T04:51:05.417Z,16.18
2023-09-07T04:53:35.879Z,16.12
2023-09-07T04:56:04.446Z,16.17
2023-09-07T04:58:32.483Z,16.13
2023-09-07T05:01:04.618Z,16.13
2023-09-07T05:03:32.878Z,16.12
2023-09-07T05:06:00.599Z,16.14
2023-09-07T05:08:29.935Z,16.15
2023-09-07T05:10:58.840Z,16.14
2023-09-07T05:13:27.570Z,16.22
2023-09-07T05:15:57.414Z,16.32
2023-09-07T05:18:25.342Z,16.49
2023-09-07T05:20:53.384Z,16.60
2023-09-07T05:23:22.468Z,16.70
2023-09-07T05:25:53.441Z,16.94
2023-09-07T05:28:22.363Z,17.18
2023-09-07T05:30:50.739Z,17.49
2023-09-07T05:33:19.958Z,18.09
2023-09-07T05:35:48.344Z,18.24
2023-09-07T05:38:16.305Z,18.25
2023-09-07T05:40:46.206Z,18.17
2023-09-07T05:43:15.479Z,18.20
2023-09-07T05:45:44.293Z,18.29
2023-09-07T05:48:12.115Z,18.25
2023-09-07T05:50:40.749Z,18.31
2023-09-07T05:53:08.658Z,18.66
2023-09-07T05:55:36.469Z,18.96
2023-09-07T05:58:06.859Z,19.07
2023-09-07T06:00:36.363Z,19.25
2023-09-07T06:03:05.175Z,19.98
2023-09-07T06:05:33.174Z,21.32
2023-09-07T06:08:00.861Z,23.26
2023-09-07T06:10:30.022Z,25.23
2023-09-07T06:12:58.112Z,26.17
2023-09-07T06:15:27.149Z,26.99
2023-09-07T06:17:56.337Z,27.43
2023-09-07T06:20:24.410Z,27.74
2023-09-07T06:22:52.545Z,28.71
2023-09-07T06:25:21.147Z,27.19
2023-09-07T06:27:49.065Z,27.40
2023-09-07T06:30:16.773Z,27.83
2023-09-07T06:32:44.888Z,28.47
2023-09-07T06:35:13.993Z,28.24
2023-09-07T06:37:44.397Z,28.99
2023-09-07T06:40:12.689Z,28.33
2023-09-07T06:42:40.282Z,28.61
2023-09-07T06:45:09.346Z,29.21
2023-09-07T06:47:37.100Z,29.00
2023-09-07T06:50:05.563Z,29.39
2023-09-07T06:52:34.658Z,29.33
2023-09-07T06:55:02.626Z,29.21
2023-09-07T06:57:30.902Z,29.34
2023-09-07T06:59:58.669Z,28.33
2023-09-07T07:02:26.276Z,28.42
2023-09-07T07:04:54.076Z,28.92
2023-09-07T07:07:22.068Z,29.04
2023-09-07T07:09:53.645Z,28.85
2023-09-07T07:12:21.989Z,29.32
2023-09-07T07:14:49.751Z,30.20
2023-09-07T07:17:17.505Z,28.24
2023-09-07T07:19:45.412Z,28.44
2023-09-07T07:22:14.874Z,28.22
2023-09-07T07:24:42.546Z,27.90
2023-09-07T07:27:12.632Z,27.78
2023-09-07T07:29:40.452Z,28.24
2023-09-07T07:32:08.187Z,28.49
2023-09-07T07:34:35.842Z,29.82
2023-09-07T07:37:04.475Z,27.73
2023-09-07T07:39:32.250Z,28.52
2023-09-07T07:42:00.617Z,27.03
2023-09-07T07:44:29.693Z,27.77
2023-09-07T07:46:57.643Z,28.08
2023-09-07T07:49:25.865Z,28.63
2023-09-07T07:51:56.468Z,27.81
2023-09-07T07:54:25.936Z,28.28
2023-09-07T07:56:53.556Z,29.37
2023-09-07T07:59:21.388Z,27.49
2023-09-07T08:01:50.347Z,28.03
2023-09-07T08:04:18.116Z,29.04
2023-09-07T08:06:45.747Z,28.21
2023-09-07T08:09:14.403Z,27.29
2023-09-07T08:11:42.070Z,28.22
2023-09-07T08:14:09.980Z,28.12
2023-09-07T08:16:38.041Z,27.25
2023-09-07T08:19:12.176Z,28.11
2023-09-07T08:21:40.728Z,29.14
2023-09-07T08:24:09.027Z,28.75
2023-09-07T08:26:40.650Z,29.23
2023-09-07T08:29:09.465Z,29.19
2023-09-07T08:31:39.646Z,30.00
2023-09-07T08:34:12.186Z,28.93
2023-09-07T08:36:40.069Z,27.83
2023-09-07T08:39:10.877Z,28.94
2023-09-07T08:41:54.515Z,29.18
2023-09-07T08:44:30.290Z,29.50
2023-09-07T08:46:59.393Z,29.37
2023-09-07T08:49:29.070Z,29.38
2023-09-07T08:52:00.329Z,28.23
2023-09-07T08:54:29.039Z,29.07
2023-09-07T08:56:58.975Z,28.93
2023-09-07T08:59:26.845Z,28.13
2023-09-07T09:01:59.453Z,27.98
2023-09-07T09:04:30.073Z,27.77
2023-09-07T09:06:57.753Z,27.41
2023-09-07T09:09:26.689Z,27.55
2023-09-07T09:11:54.380Z,28.08
2023-09-07T09:14:23.344Z,28.48
2023-09-07T09:16:52.419Z,27.38
2023-09-07T09:19:20.300Z,27.71
2023-09-07T09:21:51.004Z,27.03
2023-09-07T09:24:19.206Z,27.71
2023-09-07T09:26:47.146Z,27.74
2023-09-07T09:29:16.220Z,27.80
2023-09-07T09:31:44.021Z,27.13
2023-09-07T09:34:12.797Z,26.75
2023-09-07T09:36:43.940Z,26.56
2023-09-07T09:39:23.858Z,26.62
2023-09-07T09:41:51.569Z,26.06
2023-09-07T09:44:22.604Z,26.09
2023-09-07T09:46:53.373Z,26.09
2023-09-07T09:49:24.739Z,26.06
2023-09-07T09:51:52.435Z,26.03
2023-09-07T09:54:23.288Z,26.41
2023-09-07T09:56:51.087Z,25.71
2023-09-07T09:59:19.628Z,25.43
2023-09-07T10:01:51.636Z,25.38
2023-09-07T10:04:21.791Z,25.94
2023-09-07T10:06:56.083Z,25.89
2023-09-07T10:09:25.428Z,26.09
2023-09-07T10:11:55.485Z,26.11
2023-09-07T10:14:23.564Z,26.08
2023-09-07T10:16:54.181Z,25.83
2023-09-07T10:19:23.477Z,26.08
2023-09-07T10:21:51.982Z,26.29
2023-09-07T10:24:28.202Z,26.55
2023-09-07T10:27:01.125Z,26.18
2023-09-07T10:29:29.528Z,25.92
2023-09-07T10:31:57.572Z,26.03
2023-09-07T10:34:37.184Z,26.45
2023-09-07T10:37:05.937Z,26.58
2023-09-07T10:39:35.057Z,26.70
2023-09-07T10:42:03.005Z,26.61
2023-09-07T10:44:31.401Z,26.28
2023-09-07T10:46:59.511Z,26.61
2023-09-07T10:49:27.594Z,26.77
2023-09-07T10:51:55.331Z,26.87
2023-09-07T10:54:27.470Z,26.89
2023-09-07T10:56:58.882Z,26.65
2023-09-07T10:59:29.864Z,26.75
2023-09-07T11:02:08.873Z,26.67
2023-09-07T11:04:36.792Z,26.90
2023-09-07T11:07:05.456Z,26.92
2023-09-07T11:09:33.508Z,26.95
2023-09-07T11:12:08.825Z,26.94
2023-09-07T11:14:36.629Z,26.96
2023-09-07T11:17:05.241Z,26.76
2023-09-07T11:19:34.589Z,26.77
2023-09-07T11:22:05.245Z,26.91
2023-09-07T11:24:34.073Z,26.97
2023-09-07T11:27:03.816Z,27.26
2023-09-07T11:29:35.072Z,27.32
2023-09-07T11:32:09.813Z,27.53
2023-09-07T11:34:38.016Z,27.17
2023-09-07T11:37:06.041Z,27.08
2023-09-07T11:39:33.741Z,26.87
2023-09-07T11:42:01.548Z,27.04
2023-09-07T11:44:29.288Z,26.89
2023-09-07T11:46:58.460Z,27.03
2023-09-07T11:49:26.393Z,27.22
2023-09-07T11:51:54.126Z,27.50
2023-09-07T11:54:21.992Z,27.28
2023-09-07T11:56:49.817Z,27.55
2023-09-07T11:59:18.348Z,27.42
2023-09-07T12:01:46.305Z,27.20
2023-09-07T12:04:16.035Z,27.20
2023-09-07T12:06:44.324Z,27.06
2023-09-07T12:09:12.051Z,27.24
2023-09-07T12:11:40.007Z,27.53
2023-09-07T12:14:07.845Z,27.53
2023-09-07T12:16:35.716Z,27.36
2023-09-07T12:19:03.564Z,27.27
2023-09-07T12:21:32.687Z,27.26
2023-09-07T12:24:00.598Z,27.13
2023-09-07T12:26:28.225Z,27.57
2023-09-07T12:28:55.891Z,27.69
2023-09-07T12:31:23.664Z,27.40
2023-09-07T12:33:51.458Z,27.60
2023-09-07T12:36:19.294Z,27.28
2023-09-07T12:38:48.235Z,27.49
2023-09-07T12:41:16.746Z,27.49
2023-09-07T12:43:44.842Z,27.87
2023-09-07T12:46:12.607Z,28.09
2023-09-07T12:48:40.509Z,27.73
2023-09-07T12:51:08.135Z,28.05
2023-09-07T12:53:35.783Z,27.94
2023-09-07T12:56:05.108Z,27.99
2023-09-07T12:58:32.734Z,28.12
2023-09-07T13:01:00.449Z,28.24
2023-09-07T13:03:28.283Z,28.48
2023-09-07T13:05:56.272Z,28.63
2023-09-07T13:08:23.955Z,28.72
2023-09-07T13:10:51.653Z,28.61
2023-09-07T13:13:22.489Z,28.56
2023-09-07T13:15:50.602Z,28.41
2023-09-07T13:18:18.473Z,28.44
2023-09-07T13:20:46.395Z,28.61
2023-09-07T13:23:14.110Z,28.62
2023-09-07T13:25:41.998Z,28.49
2023-09-07T13:28:10.804Z,28.63
2023-09-07T13:30:40.583Z,28.32
2023-09-07T13:33:08.957Z,28.17
2023-09-07T13:35:36.683Z,28.31
2023-09-07T13:38:04.461Z,28.23
2023-09-07T13:40:32.079Z,28.29
2023-09-07T13:43:00.183Z,28.29
2023-09-07T13:45:29.532Z,28.33
2023-09-07T13:47:58.793Z,28.60
2023-09-07T13:50:26.543Z,28.42
2023-09-07T13:52:54.195Z,28.37
2023-09-07T13:55:21.915Z,28.49
2023-09-07T13:57:49.672Z,28.56
2023-09-07T14:00:17.661Z,28.81
2023-09-07T14:02:45.463Z,28.50
2023-09-07T14:05:14.589Z,28.60
2023-09-07T14:07:42.266Z,28.62
2023-09-07T14:10:10.229Z,28.78
2023-09-07T14:12:37.929Z,28.99
2023-09-07T14:15:06.321Z,28.64
2023-09-07T14:17:33.985Z,28.72
2023-09-07T14:20:01.686Z,28.57
2023-09-07T14:22:30.705Z,28.67
2023-09-07T14:24:58.447Z,28.72
2023-09-07T14:27:27.208Z,28.64
2023-09-07T14:29:55.084Z,28.52
2023-09-07T14:32:22.811Z,28.79
2023-09-07T14:34:50.438Z,28.83
2023-09-07T14:37:18.194Z,28.88
2023-09-07T14:39:50.365Z,28.66
2023-09-07T14:42:20.451Z,28.64
2023-09-07T14:44:48.307Z,28.60
2023-09-07T14:47:16.034Z,28.68
2023-09-07T14:49:43.911Z,28.61
2023-09-07T14:52:12.314Z,28.67
2023-09-07T14:54:41.482Z,28.67
2023-09-07T14:57:10.540Z,28.60
2023-09-07T14:59:40.547Z,28.66
2023-09-07T15:02:08.415Z,28.66
2023-09-07T15:04:36.978Z,28.48
2023-09-07T15:07:04.797Z,28.43
2023-09-07T15:09:32.462Z,28.33
2023-09-07T15:12:00.796Z,28.41
2023-09-07T15:14:30.028Z,28.53
2023-09-07T15:16:57.779Z,28.50
2023-09-07T15:19:29.430Z,28.57
2023-09-07T15:21:57.029Z,28.56
2023-09-07T15:24:24.878Z,28.51
2023-09-07T15:26:52.552Z,28.48
2023-09-07T15:29:20.341Z,28.56
2023-09-07T15:31:51.287Z,28.52
2023-09-07T15:34:19.606Z,28.47
2023-09-07T15:36:47.246Z,28.58
2023-09-07T15:39:14.947Z,28.58
2023-09-07T15:41:54.017Z,28.46
2023-09-07T15:44:21.790Z,28.43
2023-09-07T15:46:49.669Z,28.39
2023-09-07T15:49:20.755Z,28.24
2023-09-07T15:51:48.897Z,28.28
2023-09-07T15:54:16.877Z,28.27
2023-09-07T15:56:44.691Z,28.39
2023-09-07T15:59:13.903Z,28.31
2023-09-07T16:01:41.893Z,28.27
2023-09-07T16:04:09.886Z,28.24
2023-09-07T16:06:37.889Z,28.30
2023-09-07T16:09:06.543Z,28.28
2023-09-07T16:11:34.407Z,28.17
2023-09-07T16:14:02.061Z,28.15
2023-09-07T16:16:31.076Z,28.24
2023-09-07T16:18:59.039Z,28.23
2023-09-07T16:21:26.744Z,28.17
2023-09-07T16:23:54.429Z,28.13
2023-09-07T16:26:22.451Z,28.07
2023-09-07T16:28:50.606Z,27.99
2023-09-07T16:31:18.648Z,27.94
2023-09-07T16:33:47.705Z,27.96
2023-09-07T16:36:15.314Z,27.91
2023-09-07T16:38:42.943Z,27.90
2023-09-07T16:41:10.748Z,27.85
2023-09-07T16:43:38.419Z,27.85
2023-09-07T16:46:06.233Z,27.79
2023-09-07T16:48:34.482Z,27.83
2023-09-07T16:51:03.919Z,27.84
2023-09-07T16:53:32.673Z,27.70
2023-09-07T16:56:00.498Z,27.60
2023-09-07T16:58:42.717Z,27.64
2023-09-07T17:01:16.033Z,27.53
2023-09-07T17:03:43.985Z,27.48
2023-09-07T17:06:13.036Z,27.42
2023-09-07T17:08:40.729Z,27.34
2023-09-07T17:11:08.498Z,27.25
2023-09-07T17:13:37.921Z,27.14
2023-09-07T17:16:07.911Z,27.03
2023-09-07T17:18:36.111Z,26.98
2023-09-07T17:21:06.707Z,26.99
2023-09-07T17:23:35.779Z,26.94
2023-09-07T17:26:06.034Z,26.88
2023-09-07T17:28:34.150Z,26.86
2023-09-07T17:31:02.465Z,26.84
2023-09-07T17:33:30.421Z,26.76
2023-09-07T17:35:58.569Z,26.72
2023-09-07T17:38:27.946Z,26.61
2023-09-07T17:40:57.042Z,26.50
2023-09-07T17:43:24.669Z,26.37
2023-09-07T17:45:52.355Z,26.23
2023-09-07T17:48:20.298Z,26.18
2023-09-07T17:50:50.005Z,26.11
2023-09-07T17:53:17.900Z,26.00
2023-09-07T17:55:46.252Z,25.91
2023-09-07T17:58:15.547Z,25.83
2023-09-07T18:00:45.358Z,25.72
2023-09-07T18:03:13.773Z,25.64
2023-09-07T18:05:41.985Z,25.65
2023-09-07T18:08:09.983Z,25.53
2023-09-07T18:10:37.748Z,25.50
2023-09-07T18:13:05.711Z,25.43
2023-09-07T18:15:34.785Z,25.22
2023-09-07T18:18:02.700Z,25.02
2023-09-07T18:20:30.515Z,24.90
2023-09-07T18:22:58.173Z,24.79
2023-09-07T18:25:25.836Z,24.64
2023-09-07T18:27:53.669Z,24.53
2023-09-07T18:30:21.830Z,24.49
2023-09-07T18:32:51.336Z,24.53
2023-09-07T18:35:19.295Z,24.50
2023-09-07T18:37:47.291Z,24.56
2023-09-07T18:40:15.403Z,24.59
2023-09-07T18:42:43.594Z,24.55
2023-09-07T18:45:12.206Z,24.46
2023-09-07T18:47:42.213Z,24.44
2023-09-07T18:50:13.358Z,24.39
2023-09-07T18:52:42.771Z,24.37
2023-09-07T18:55:11.548Z,24.33
2023-09-07T18:57:39.985Z,24.29
2023-09-07T19:00:09.078Z,24.17
2023-09-07T19:02:37.786Z,24.08
2023-09-07T19:05:06.168Z,24.02
2023-09-07T19:07:36.093Z,23.93
2023-09-07T19:10:04.215Z,23.81
2023-09-07T19:12:31.891Z,23.69
2023-09-07T19:14:59.581Z,23.62
2023-09-07T19:17:27.403Z,23.58
2023-09-07T19:19:55.563Z,23.54
2023-09-07T19:22:23.236Z,23.48
2023-09-07T19:24:55.417Z,23.42
2023-09-07T19:27:24.278Z,23.34
2023-09-07T19:29:52.597Z,23.23
2023-09-07T19:32:26.309Z,23.16
2023-09-07T19:34:54.544Z,23.03
2023-09-07T19:37:23.551Z,22.92
2023-09-07T19:39:52.836Z,22.82
2023-09-07T19:42:21.864Z,22.77
2023-09-07T19:44:50.519Z,22.68
2023-09-07T19:47:18.503Z,22.62
2023-09-07T19:49:46.419Z,22.58
2023-09-07T19:52:14.215Z,22.58
2023-09-07T19:54:42.117Z,22.70
2023-09-07T19:57:11.559Z,22.85
2023-09-07T19:59:42.915Z,22.96
2023-09-07T20:02:10.855Z,22.93
2023-09-07T20:04:40.926Z,22.99
2023-09-07T20:07:08.581Z,22.97
2023-09-07T20:09:36.477Z,22.92
2023-09-07T20:12:04.374Z,22.83
2023-09-07T20:14:33.579Z,22.79
2023-09-07T20:17:01.367Z,22.67
2023-09-07T20:19:42.459Z,22.61
2023-09-07T20:22:10.352Z,22.55
2023-09-07T20:24:38.521Z,22.59
2023-09-07T20:27:06.920Z,22.47
2023-09-07T20:29:37.004Z,22.27
2023-09-07T20:32:04.948Z,22.12
2023-09-07T20:34:32.966Z,21.99
2023-09-07T20:37:00.754Z,21.89
2023-09-07T20:39:28.723Z,21.82
2023-09-07T20:41:57.841Z,21.84
2023-09-07T20:44:25.588Z,21.91
2023-09-07T20:46:57.274Z,21.88
2023-09-07T20:49:25.165Z,21.93
2023-09-07T20:51:53.054Z,21.89
2023-09-07T20:54:21.134Z,21.83
2023-09-07T20:56:49.158Z,21.73
2023-09-07T20:59:16.960Z,21.71
2023-09-07T21:01:48.009Z,21.69
2023-09-07T21:04:17.694Z,21.60
2023-09-07T21:06:45.899Z,21.52
2023-09-07T21:09:16.527Z,21.47
2023-09-07T21:11:44.747Z,21.36
2023-09-07T21:14:12.486Z,21.28
2023-09-07T21:16:40.524Z,21.21
2023-09-07T21:19:09.250Z,21.09
2023-09-07T21:21:38.164Z,21.04
2023-09-07T21:24:06.570Z,20.98
2023-09-07T21:26:34.418Z,20.95
2023-09-07T21:29:02.101Z,20.89
2023-09-07T21:31:29.785Z,20.88
2023-09-07T21:33:57.587Z,20.89
2023-09-07T21:36:25.450Z,20.87
2023-09-07T21:38:54.644Z,20.84
2023-09-07T21:41:23.722Z,20.81
2023-09-07T21:43:53.633Z,20.75
2023-09-07T21:46:22.987Z,20.72
2023-09-07T21:48:50.777Z,20.69
2023-09-07T21:51:18.606Z,20.66
2023-09-07T21:53:46.319Z,20.64
2023-09-07T21:56:15.351Z,20.65
2023-09-07T21:58:43.165Z,20.59
2023-09-07T22:01:10.932Z,20.58
2023-09-07T22:03:38.713Z,20.50
2023-09-07T22:06:07.077Z,20.46
2023-09-07T22:08:35.189Z,20.43
2023-09-07T22:11:04.175Z,20.41
2023-09-07T22:13:40.293Z,20.36
2023-09-07T22:16:09.145Z,20.28
2023-09-07T22:18:37.468Z,20.20
2023-09-07T22:21:06.799Z,20.14
2023-09-07T22:23:42.735Z,20.10
2023-09-07T22:26:11.820Z,20.03
2023-09-07T22:28:40.863Z,20.13
2023-09-07T22:31:08.948Z,20.25
2023-09-07T22:33:36.751Z,20.30
2023-09-07T22:36:05.602Z,20.16
2023-09-07T22:38:33.722Z,20.10
2023-09-07T22:41:01.560Z,19.99
2023-09-07T22:43:29.175Z,19.87
2023-09-07T22:45:58.562Z,19.88
2023-09-07T22:48:26.282Z,19.82
2023-09-07T22:50:54.189Z,19.88
2023-09-07T22:53:23.276Z,19.80
2023-09-07T22:55:51.511Z,19.71
2023-09-07T22:58:21.701Z,19.60
2023-09-07T23:00:50.682Z,19.58
2023-09-07T23:03:20.171Z,19.58
2023-09-07T23:05:47.905Z,19.53
2023-09-07T23:08:16.103Z,19.48
2023-09-07T23:10:44.793Z,19.44
2023-09-07T23:13:12.456Z,19.43
2023-09-07T23:15:40.220Z,19.39
2023-09-07T23:18:08.480Z,19.35
2023-09-07T23:20:38.154Z,19.43
2023-09-07T23:23:05.951Z,19.35
2023-09-07T23:25:33.903Z,19.40
2023-09-07T23:28:01.664Z,19.42
2023-09-07T23:30:29.375Z,19.45
2023-09-07T23:32:57.031Z,19.38
2023-09-07T23:35:24.974Z,19.34
2023-09-07T23:37:54.216Z,19.28
2023-09-07T23:40:22.407Z,19.21
2023-09-07T23:42:50.506Z,19.12
2023-09-07T23:45:18.253Z,19.13
2023-09-07T23:47:45.932Z,19.13
2023-09-07T23:50:13.560Z,19.13
2023-09-07T23:52:42.871Z,19.12
2023-09-07T23:55:12.077Z,19.03
2023-09-07T23:57:39.702Z,19.20
